sensor_id;sensor_type;location;lat;lon;timestamp;pressure;altitude;pressure_sealevel;temperature;humidity
79374;BME280;68844;53.128;17.958;2023-08-24T00:01:46;101225.23;;;17.82;67.43
79374;BME280;68844;53.128;17.958;2023-08-24T00:04:15;101226.58;;;17.77;67.77
79374;BME280;68844;53.128;17.958;2023-08-24T00:06:42;101223.14;;;17.73;67.38
79374;BME280;68844;53.128;17.958;2023-08-24T00:09:09;101217.61;;;17.68;67.90
79374;BME280;68844;53.128;17.958;2023-08-24T00:11:35;101220.73;;;17.63;68.43
79374;BME280;68844;53.128;17.958;2023-08-24T00:14:06;101220.91;;;17.55;68.80
79374;BME280;68844;53.128;17.958;2023-08-24T00:16:33;101224.41;;;17.47;68.69
79374;BME280;68844;53.128;17.958;2023-08-24T00:18:59;101229.38;;;17.38;69.16
79374;BME280;68844;53.128;17.958;2023-08-24T00:21:26;101230.50;;;17.33;69.34
79374;BME280;68844;53.128;17.958;2023-08-24T00:23:53;101231.63;;;17.33;69.86
79374;BME280;68844;53.128;17.958;2023-08-24T00:26:20;101231.35;;;17.27;70.25
79374;BME280;68844;53.128;17.958;2023-08-24T00:28:46;101237.00;;;17.25;70.24
79374;BME280;68844;53.128;17.958;2023-08-24T00:31:15;101233.55;;;17.24;69.88
79374;BME280;68844;53.128;17.958;2023-08-24T00:33:43;101231.56;;;17.26;70.60
79374;BME280;68844;53.128;17.958;2023-08-24T00:36:09;101229.24;;;17.29;71.09
79374;BME280;68844;53.128;17.958;2023-08-24T00:38:36;101229.44;;;17.29;71.14
79374;BME280;68844;53.128;17.958;2023-08-24T00:41:03;101227.38;;;17.30;71.27
79374;BME280;68844;53.128;17.958;2023-08-24T00:43:30;101234.20;;;17.31;71.20
79374;BME280;68844;53.128;17.958;2023-08-24T00:45:59;101236.64;;;17.32;70.48
79374;BME280;68844;53.128;17.958;2023-08-24T00:48:27;101240.45;;;17.34;70.59
79374;BME280;68844;53.128;17.958;2023-08-24T00:50:57;101241.40;;;17.33;71.02
79374;BME280;68844;53.128;17.958;2023-08-24T00:53:26;101239.73;;;17.29;71.02
79374;BME280;68844;53.128;17.958;2023-08-24T00:55:53;101245.64;;;17.26;71.45
79374;BME280;68844;53.128;17.958;2023-08-24T00:58:20;101251.09;;;17.23;70.93
79374;BME280;68844;53.128;17.958;2023-08-24T01:00:49;101250.05;;;17.24;70.39
79374;BME280;68844;53.128;17.958;2023-08-24T01:03:17;101250.05;;;17.27;70.55
79374;BME280;68844;53.128;17.958;2023-08-24T01:05:44;101251.87;;;17.26;71.04
79374;BME280;68844;53.128;17.958;2023-08-24T01:08:12;101254.76;;;17.26;70.70
79374;BME280;68844;53.128;17.958;2023-08-24T01:10:55;101253.73;;;17.25;70.74
79374;BME280;68844;53.128;17.958;2023-08-24T01:13:33;101251.89;;;17.21;70.64
79374;BME280;68844;53.128;17.958;2023-08-24T01:16:08;101247.91;;;17.18;71.00
79374;BME280;68844;53.128;17.958;2023-08-24T01:18:40;101251.27;;;17.16;71.12
79374;BME280;68844;53.128;17.958;2023-08-24T01:21:09;101250.67;;;17.07;71.15
79374;BME280;68844;53.128;17.958;2023-08-24T01:23:44;101251.95;;;16.97;71.22
79374;BME280;68844;53.128;17.958;2023-08-24T01:26:14;101249.97;;;16.89;71.29
79374;BME280;68844;53.128;17.958;2023-08-24T01:28:44;101247.54;;;16.83;71.20
79374;BME280;68844;53.128;17.958;2023-08-24T01:31:10;101250.70;;;16.79;71.57
79374;BME280;68844;53.128;17.958;2023-08-24T01:33:39;101250.28;;;16.72;71.85
79374;BME280;68844;53.128;17.958;2023-08-24T01:36:06;101249.33;;;16.64;71.91
79374;BME280;68844;53.128;17.958;2023-08-24T01:38:33;101247.86;;;16.60;71.90
79374;BME280;68844;53.128;17.958;2023-08-24T01:43:31;101251.41;;;16.47;72.05
79374;BME280;68844;53.128;17.958;2023-08-24T01:46:03;101251.91;;;16.41;72.17
79374;BME280;68844;53.128;17.958;2023-08-24T01:48:31;101256.20;;;16.33;72.92
79374;BME280;68844;53.128;17.958;2023-08-24T01:51:00;101253.68;;;16.24;72.97
79374;BME280;68844;53.128;17.958;2023-08-24T01:53:29;101252.33;;;16.18;73.06
79374;BME280;68844;53.128;17.958;2023-08-24T01:55:56;101256.83;;;16.15;72.89
79374;BME280;68844;53.128;17.958;2023-08-24T01:58:23;101254.83;;;16.13;72.87
79374;BME280;68844;53.128;17.958;2023-08-24T02:00:50;101251.19;;;16.07;73.64
79374;BME280;68844;53.128;17.958;2023-08-24T02:03:16;101249.02;;;16.00;73.74
79374;BME280;68844;53.128;17.958;2023-08-24T02:05:43;101246.98;;;15.96;73.58
79374;BME280;68844;53.128;17.958;2023-08-24T02:08:10;101246.66;;;15.93;73.64
79374;BME280;68844;53.128;17.958;2023-08-24T02:11:02;101245.50;;;15.90;73.27
79374;BME280;68844;53.128;17.958;2023-08-24T02:13:29;101243.27;;;15.86;73.76
79374;BME280;68844;53.128;17.958;2023-08-24T02:16:08;101244.20;;;15.78;74.23
79374;BME280;68844;53.128;17.958;2023-08-24T02:18:39;101244.91;;;15.70;74.01
79374;BME280;68844;53.128;17.958;2023-08-24T02:21:12;101245.00;;;15.64;74.25
79374;BME280;68844;53.128;17.958;2023-08-24T02:23:40;101250.13;;;15.59;73.72
79374;BME280;68844;53.128;17.958;2023-08-24T02:26:07;101244.67;;;15.56;74.07
79374;BME280;68844;53.128;17.958;2023-08-24T02:28:36;101247.59;;;15.53;74.13
79374;BME280;68844;53.128;17.958;2023-08-24T02:31:04;101245.52;;;15.44;73.86
79374;BME280;68844;53.128;17.958;2023-08-24T02:33:31;101246.55;;;15.37;74.38
79374;BME280;68844;53.128;17.958;2023-08-24T02:35:59;101245.08;;;15.32;74.25
79374;BME280;68844;53.128;17.958;2023-08-24T02:38:26;101245.09;;;15.32;74.23
79374;BME280;68844;53.128;17.958;2023-08-24T02:41:03;101247.18;;;15.33;75.01
79374;BME280;68844;53.128;17.958;2023-08-24T02:43:32;101251.39;;;15.36;75.18
79374;BME280;68844;53.128;17.958;2023-08-24T02:46:03;101248.52;;;15.39;75.28
79374;BME280;68844;53.128;17.958;2023-08-24T02:48:31;101246.39;;;15.41;74.98
79374;BME280;68844;53.128;17.958;2023-08-24T02:50:59;101249.27;;;15.46;75.26
79374;BME280;68844;53.128;17.958;2023-08-24T02:53:26;101250.10;;;15.52;75.43
79374;BME280;68844;53.128;17.958;2023-08-24T02:55:55;101246.70;;;15.53;75.75
79374;BME280;68844;53.128;17.958;2023-08-24T02:58:22;101244.31;;;15.54;75.93
79374;BME280;68844;53.128;17.958;2023-08-24T03:00:49;101246.98;;;15.56;76.19
79374;BME280;68844;53.128;17.958;2023-08-24T03:03:16;101246.17;;;15.57;75.50
79374;BME280;68844;53.128;17.958;2023-08-24T03:05:59;101240.80;;;15.63;75.40
79374;BME280;68844;53.128;17.958;2023-08-24T03:08:29;101238.11;;;15.66;75.62
79374;BME280;68844;53.128;17.958;2023-08-24T03:10:58;101238.95;;;15.69;75.84
79374;BME280;68844;53.128;17.958;2023-08-24T03:13:25;101236.53;;;15.74;75.79
79374;BME280;68844;53.128;17.958;2023-08-24T03:15:52;101236.02;;;15.76;75.58
79374;BME280;68844;53.128;17.958;2023-08-24T03:18:20;101232.40;;;15.82;75.53
79374;BME280;68844;53.128;17.958;2023-08-24T03:20:48;101236.59;;;15.87;75.88
79374;BME280;68844;53.128;17.958;2023-08-24T03:23:16;101239.54;;;15.91;76.03
79374;BME280;68844;53.128;17.958;2023-08-24T03:25:43;101243.02;;;15.92;76.20
79374;BME280;68844;53.128;17.958;2023-08-24T03:28:10;101249.08;;;15.92;75.59
79374;BME280;68844;53.128;17.958;2023-08-24T03:30:39;101248.05;;;15.96;75.34
79374;BME280;68844;53.128;17.958;2023-08-24T03:33:06;101250.25;;;16.02;75.72
79374;BME280;68844;53.128;17.958;2023-08-24T03:35:33;101245.15;;;16.05;75.91
79374;BME280;68844;53.128;17.958;2023-08-24T03:38:00;101242.35;;;16.04;75.90
79374;BME280;68844;53.128;17.958;2023-08-24T03:40:27;101239.04;;;16.03;75.79
79374;BME280;68844;53.128;17.958;2023-08-24T03:42:54;101235.74;;;16.04;75.62
79374;BME280;68844;53.128;17.958;2023-08-24T03:45:22;101240.20;;;16.09;75.49
79374;BME280;68844;53.128;17.958;2023-08-24T03:47:49;101234.73;;;16.14;75.47
79374;BME280;68844;53.128;17.958;2023-08-24T03:50:17;101234.74;;;16.15;75.80
79374;BME280;68844;53.128;17.958;2023-08-24T03:52:43;101232.08;;;16.18;75.60
79374;BME280;68844;53.128;17.958;2023-08-24T03:55:11;101232.75;;;16.19;75.35
79374;BME280;68844;53.128;17.958;2023-08-24T03:57:38;101239.51;;;16.19;75.03
79374;BME280;68844;53.128;17.958;2023-08-24T04:00:06;101237.89;;;16.21;75.21
79374;BME280;68844;53.128;17.958;2023-08-24T04:02:43;101242.62;;;16.24;75.29
79374;BME280;68844;53.128;17.958;2023-08-24T04:05:13;101243.28;;;16.25;75.36
79374;BME280;68844;53.128;17.958;2023-08-24T04:07:39;101246.80;;;16.26;75.31
79374;BME280;68844;53.128;17.958;2023-08-24T04:10:08;101250.55;;;16.25;75.19
79374;BME280;68844;53.128;17.958;2023-08-24T04:12:36;101256.73;;;16.26;75.22
79374;BME280;68844;53.128;17.958;2023-08-24T04:15:03;101262.52;;;16.32;75.13
79374;BME280;68844;53.128;17.958;2023-08-24T04:17:31;101261.12;;;16.34;75.63
79374;BME280;68844;53.128;17.958;2023-08-24T04:19:59;101266.86;;;16.33;75.64
79374;BME280;68844;53.128;17.958;2023-08-24T04:22:26;101268.33;;;16.37;75.56
79374;BME280;68844;53.128;17.958;2023-08-24T04:24:53;101267.64;;;16.44;75.21
79374;BME280;68844;53.128;17.958;2023-08-24T04:27:20;101263.04;;;16.51;74.99
79374;BME280;68844;53.128;17.958;2023-08-24T04:29:48;101260.20;;;16.58;74.85
79374;BME280;68844;53.128;17.958;2023-08-24T04:32:15;101265.70;;;16.64;75.15
79374;BME280;68844;53.128;17.958;2023-08-24T04:34:42;101265.63;;;16.69;75.42
79374;BME280;68844;53.128;17.958;2023-08-24T04:37:09;101264.89;;;16.77;75.13
79374;BME280;68844;53.128;17.958;2023-08-24T04:39:36;101263.86;;;16.88;74.86
79374;BME280;68844;53.128;17.958;2023-08-24T04:42:04;101257.15;;;17.02;74.23
79374;BME280;68844;53.128;17.958;2023-08-24T04:44:33;101250.97;;;17.19;74.17
79374;BME280;68844;53.128;17.958;2023-08-24T04:47:00;101250.02;;;17.39;74.00
79374;BME280;68844;53.128;17.958;2023-08-24T04:49:27;101244.52;;;17.59;73.95
79374;BME280;68844;53.128;17.958;2023-08-24T04:51:55;101249.96;;;17.80;73.26
79374;BME280;68844;53.128;17.958;2023-08-24T04:54:22;101248.98;;;17.99;73.13
79374;BME280;68844;53.128;17.958;2023-08-24T04:56:48;101251.09;;;18.19;72.68
79374;BME280;68844;53.128;17.958;2023-08-24T04:59:15;101253.50;;;18.62;72.03
79374;BME280;68844;53.128;17.958;2023-08-24T05:01:42;101259.39;;;19.36;70.67
79374;BME280;68844;53.128;17.958;2023-08-24T05:04:09;101259.52;;;19.65;69.88
79374;BME280;68844;53.128;17.958;2023-08-24T05:06:36;101256.20;;;20.33;67.57
79374;BME280;68844;53.128;17.958;2023-08-24T05:09:03;101256.02;;;21.03;65.93
79374;BME280;68844;53.128;17.958;2023-08-24T05:11:29;101253.59;;;22.09;63.83
79374;BME280;68844;53.128;17.958;2023-08-24T05:13:56;101254.04;;;22.12;61.18
79374;BME280;68844;53.128;17.958;2023-08-24T05:16:23;101258.17;;;21.68;60.97
79374;BME280;68844;53.128;17.958;2023-08-24T05:18:51;101260.41;;;21.29;62.75
79374;BME280;68844;53.128;17.958;2023-08-24T05:21:19;101261.31;;;20.93;63.49
79374;BME280;68844;53.128;17.958;2023-08-24T05:23:45;101267.10;;;20.55;63.69
79374;BME280;68844;53.128;17.958;2023-08-24T05:26:12;101270.88;;;20.31;64.31
79374;BME280;68844;53.128;17.958;2023-08-24T05:28:39;101272.23;;;19.96;64.34
79374;BME280;68844;53.128;17.958;2023-08-24T05:31:06;101273.17;;;19.73;65.08
79374;BME280;68844;53.128;17.958;2023-08-24T05:33:33;101270.63;;;19.65;65.70
79374;BME280;68844;53.128;17.958;2023-08-24T05:36:00;101270.30;;;19.69;66.19
79374;BME280;68844;53.128;17.958;2023-08-24T05:38:27;101272.86;;;19.68;65.80
79374;BME280;68844;53.128;17.958;2023-08-24T05:40:53;101277.94;;;19.73;65.75
79374;BME280;68844;53.128;17.958;2023-08-24T05:43:20;101277.23;;;19.79;65.24
79374;BME280;68844;53.128;17.958;2023-08-24T05:45:50;101279.67;;;19.88;65.03
79374;BME280;68844;53.128;17.958;2023-08-24T05:48:17;101279.32;;;19.94;65.01
79374;BME280;68844;53.128;17.958;2023-08-24T05:50:46;101277.44;;;20.05;64.84
79374;BME280;68844;53.128;17.958;2023-08-24T05:53:13;101275.55;;;20.17;64.38
79374;BME280;68844;53.128;17.958;2023-08-24T05:55:40;101277.32;;;20.28;64.64
79374;BME280;68844;53.128;17.958;2023-08-24T05:58:08;101274.25;;;20.41;64.26
79374;BME280;68844;53.128;17.958;2023-08-24T06:00:35;101267.13;;;20.56;64.03
79374;BME280;68844;53.128;17.958;2023-08-24T06:03:02;101265.54;;;20.66;62.57
79374;BME280;68844;53.128;17.958;2023-08-24T06:05:30;101267.35;;;20.81;63.23
79374;BME280;68844;53.128;17.958;2023-08-24T06:07:58;101266.55;;;20.92;62.18
79374;BME280;68844;53.128;17.958;2023-08-24T06:10:25;101270.90;;;21.03;61.62
79374;BME280;68844;53.128;17.958;2023-08-24T06:12:53;101269.13;;;21.18;61.30
79374;BME280;68844;53.128;17.958;2023-08-24T06:15:20;101266.14;;;21.35;60.66
79374;BME280;68844;53.128;17.958;2023-08-24T06:17:50;101263.08;;;21.54;60.48
79374;BME280;68844;53.128;17.958;2023-08-24T06:20:17;101262.07;;;21.77;59.70
79374;BME280;68844;53.128;17.958;2023-08-24T06:22:44;101265.63;;;22.00;59.44
79374;BME280;68844;53.128;17.958;2023-08-24T06:25:11;101271.55;;;22.26;58.86
79374;BME280;68844;53.128;17.958;2023-08-24T06:27:38;101272.13;;;22.54;57.84
79374;BME280;68844;53.128;17.958;2023-08-24T06:30:06;101268.34;;;22.72;57.75
79374;BME280;68844;53.128;17.958;2023-08-24T06:32:33;101269.54;;;22.98;57.04
79374;BME280;68844;53.128;17.958;2023-08-24T06:35:00;101270.42;;;23.10;56.10
79374;BME280;68844;53.128;17.958;2023-08-24T06:37:27;101267.38;;;23.30;55.80
79374;BME280;68844;53.128;17.958;2023-08-24T06:39:53;101268.55;;;23.49;54.93
79374;BME280;68844;53.128;17.958;2023-08-24T06:42:20;101275.36;;;23.67;53.88
79374;BME280;68844;53.128;17.958;2023-08-24T06:44:47;101273.14;;;23.92;53.69
79374;BME280;68844;53.128;17.958;2023-08-24T06:47:18;101272.35;;;24.13;52.49
79374;BME280;68844;53.128;17.958;2023-08-24T06:49:44;101267.20;;;24.59;51.60
79374;BME280;68844;53.128;17.958;2023-08-24T06:52:11;101268.83;;;25.14;50.67
79374;BME280;68844;53.128;17.958;2023-08-24T06:54:38;101266.09;;;25.59;49.32
79374;BME280;68844;53.128;17.958;2023-08-24T06:57:05;101263.55;;;25.59;48.76
79374;BME280;68844;53.128;17.958;2023-08-24T06:59:32;101262.05;;;25.97;47.42
79374;BME280;68844;53.128;17.958;2023-08-24T07:01:59;101268.41;;;26.24;47.01
79374;BME280;68844;53.128;17.958;2023-08-24T07:04:26;101270.36;;;26.67;45.49
79374;BME280;68844;53.128;17.958;2023-08-24T07:06:54;101270.40;;;26.99;45.01
79374;BME280;68844;53.128;17.958;2023-08-24T07:09:21;101272.27;;;27.08;44.59
79374;BME280;68844;53.128;17.958;2023-08-24T07:11:48;101271.16;;;27.44;43.97
79374;BME280;68844;53.128;17.958;2023-08-24T07:14:15;101275.33;;;27.68;42.22
79374;BME280;68844;53.128;17.958;2023-08-24T07:16:42;101277.46;;;27.82;42.58
79374;BME280;68844;53.128;17.958;2023-08-24T07:19:09;101280.54;;;27.89;41.55
79374;BME280;68844;53.128;17.958;2023-08-24T07:21:36;101283.20;;;27.67;43.13
79374;BME280;68844;53.128;17.958;2023-08-24T07:24:04;101286.90;;;27.68;43.95
79374;BME280;68844;53.128;17.958;2023-08-24T07:26:31;101282.46;;;27.65;43.41
79374;BME280;68844;53.128;17.958;2023-08-24T07:28:58;101285.08;;;27.47;42.96
79374;BME280;68844;53.128;17.958;2023-08-24T07:31:26;101287.09;;;27.28;42.86
79374;BME280;68844;53.128;17.958;2023-08-24T07:33:53;101283.27;;;27.44;42.99
79374;BME280;68844;53.128;17.958;2023-08-24T07:36:20;101279.51;;;27.62;42.30
79374;BME280;68844;53.128;17.958;2023-08-24T07:38:47;101281.63;;;27.76;41.95
79374;BME280;68844;53.128;17.958;2023-08-24T07:41:14;101284.36;;;28.08;41.46
79374;BME280;68844;53.128;17.958;2023-08-24T07:43:44;101275.08;;;29.23;39.15
79374;BME280;68844;53.128;17.958;2023-08-24T07:46:10;101273.23;;;30.35;37.38
79374;BME280;68844;53.128;17.958;2023-08-24T07:48:37;101275.75;;;30.58;37.34
79374;BME280;68844;53.128;17.958;2023-08-24T07:51:04;101277.26;;;31.47;32.77
79374;BME280;68844;53.128;17.958;2023-08-24T07:53:32;101279.77;;;31.93;33.38
79374;BME280;68844;53.128;17.958;2023-08-24T07:56:00;101277.91;;;32.56;31.81
79374;BME280;68844;53.128;17.958;2023-08-24T07:58:28;101280.48;;;32.24;32.79
79374;BME280;68844;53.128;17.958;2023-08-24T08:00:59;101284.98;;;32.34;31.44
79374;BME280;68844;53.128;17.958;2023-08-24T08:03:26;101281.60;;;32.31;31.04
79374;BME280;68844;53.128;17.958;2023-08-24T08:05:54;101286.11;;;32.10;31.08
79374;BME280;68844;53.128;17.958;2023-08-24T08:08:22;101284.35;;;31.89;31.26
79374;BME280;68844;53.128;17.958;2023-08-24T08:10:59;101282.88;;;31.36;30.45
79374;BME280;68844;53.128;17.958;2023-08-24T08:13:28;101285.90;;;31.12;30.92
79374;BME280;68844;53.128;17.958;2023-08-24T08:16:06;101283.73;;;31.30;30.61
79374;BME280;68844;53.128;17.958;2023-08-24T08:18:35;101286.04;;;31.37;30.24
79374;BME280;68844;53.128;17.958;2023-08-24T08:21:16;101288.85;;;31.45;29.78
79374;BME280;68844;53.128;17.958;2023-08-24T08:23:46;101288.60;;;32.40;27.98
79374;BME280;68844;53.128;17.958;2023-08-24T08:26:13;101290.52;;;31.93;27.69
79374;BME280;68844;53.128;17.958;2023-08-24T08:28:43;101291.13;;;31.47;28.21
79374;BME280;68844;53.128;17.958;2023-08-24T08:31:10;101294.18;;;31.18;29.28
79374;BME280;68844;53.128;17.958;2023-08-24T08:33:37;101295.33;;;31.07;29.74
79374;BME280;68844;53.128;17.958;2023-08-24T08:36:04;101293.81;;;30.90;30.66
79374;BME280;68844;53.128;17.958;2023-08-24T08:38:31;101299.09;;;30.86;30.90
79374;BME280;68844;53.128;17.958;2023-08-24T08:41:02;101298.64;;;30.89;30.64
79374;BME280;68844;53.128;17.958;2023-08-24T08:43:30;101294.54;;;30.99;30.28
79374;BME280;68844;53.128;17.958;2023-08-24T08:45:58;101295.16;;;30.93;31.55
79374;BME280;68844;53.128;17.958;2023-08-24T08:48:26;101294.83;;;31.08;30.88
79374;BME280;68844;53.128;17.958;2023-08-24T08:50:55;101302.33;;;31.20;31.69
79374;BME280;68844;53.128;17.958;2023-08-24T08:53:23;101296.66;;;31.29;31.78
79374;BME280;68844;53.128;17.958;2023-08-24T08:55:54;101299.52;;;31.45;31.49
79374;BME280;68844;53.128;17.958;2023-08-24T08:58:22;101304.33;;;31.62;30.32
79374;BME280;68844;53.128;17.958;2023-08-24T09:00:49;101301.17;;;31.91;30.93
79374;BME280;68844;53.128;17.958;2023-08-24T09:03:18;101302.73;;;32.26;29.44
79374;BME280;68844;53.128;17.958;2023-08-24T09:05:46;101296.94;;;32.72;28.73
79374;BME280;68844;53.128;17.958;2023-08-24T09:08:16;101296.41;;;32.91;28.53
79374;BME280;68844;53.128;17.958;2023-08-24T09:10:44;101290.23;;;33.10;27.81
79374;BME280;68844;53.128;17.958;2023-08-24T09:13:11;101287.19;;;33.20;27.08
79374;BME280;68844;53.128;17.958;2023-08-24T09:15:38;101293.80;;;33.17;28.42
79374;BME280;68844;53.128;17.958;2023-08-24T09:18:07;101290.08;;;33.89;27.80
79374;BME280;68844;53.128;17.958;2023-08-24T09:20:34;101288.39;;;35.09;27.10
79374;BME280;68844;53.128;17.958;2023-08-24T09:23:02;101282.70;;;36.04;25.98
79374;BME280;68844;53.128;17.958;2023-08-24T09:25:29;101281.44;;;36.57;24.57
79374;BME280;68844;53.128;17.958;2023-08-24T09:28:01;101284.30;;;36.68;24.02
79374;BME280;68844;53.128;17.958;2023-08-24T09:30:37;101274.16;;;37.63;21.82
79374;BME280;68844;53.128;17.958;2023-08-24T09:33:09;101274.35;;;37.96;21.17
79374;BME280;68844;53.128;17.958;2023-08-24T09:35:37;101272.01;;;37.34;22.42
79374;BME280;68844;53.128;17.958;2023-08-24T09:38:21;101272.75;;;37.78;22.40
79374;BME280;68844;53.128;17.958;2023-08-24T09:40:55;101272.16;;;38.30;21.79
79374;BME280;68844;53.128;17.958;2023-08-24T09:43:23;101270.45;;;38.99;21.97
79374;BME280;68844;53.128;17.958;2023-08-24T09:45:55;101267.59;;;39.11;21.19
79374;BME280;68844;53.128;17.958;2023-08-24T09:48:23;101264.19;;;39.68;21.01
79374;BME280;68844;53.128;17.958;2023-08-24T09:50:51;101264.84;;;39.94;19.95
79374;BME280;68844;53.128;17.958;2023-08-24T09:53:23;101267.69;;;38.90;21.33
79374;BME280;68844;53.128;17.958;2023-08-24T09:55:54;101267.42;;;38.47;21.72
79374;BME280;68844;53.128;17.958;2023-08-24T09:58:26;101271.14;;;37.36;22.51
79374;BME280;68844;53.128;17.958;2023-08-24T10:00:54;101270.52;;;37.05;23.58
79374;BME280;68844;53.128;17.958;2023-08-24T10:03:25;101266.09;;;36.93;23.27
79374;BME280;68844;53.128;17.958;2023-08-24T10:05:53;101266.92;;;36.90;23.73
79374;BME280;68844;53.128;17.958;2023-08-24T10:08:26;101264.30;;;36.46;23.02
79374;BME280;68844;53.128;17.958;2023-08-24T10:10:55;101262.90;;;35.98;23.93
79374;BME280;68844;53.128;17.958;2023-08-24T10:16:08;101260.67;;;35.14;24.50
79374;BME280;68844;53.128;17.958;2023-08-24T10:18:37;101255.23;;;35.22;24.59
79374;BME280;68844;53.128;17.958;2023-08-24T10:21:04;101251.99;;;34.94;24.29
79374;BME280;68844;53.128;17.958;2023-08-24T10:23:31;101248.77;;;34.84;23.85
79374;BME280;68844;53.128;17.958;2023-08-24T10:25:59;101249.45;;;34.50;24.81
79374;BME280;68844;53.128;17.958;2023-08-24T10:28:29;101240.11;;;34.77;25.92
79374;BME280;68844;53.128;17.958;2023-08-24T10:30:58;101238.63;;;35.48;25.23
79374;BME280;68844;53.128;17.958;2023-08-24T10:33:26;101232.16;;;35.97;23.10
79374;BME280;68844;53.128;17.958;2023-08-24T10:35:54;101235.73;;;35.97;22.50
79374;BME280;68844;53.128;17.958;2023-08-24T10:38:25;101233.23;;;36.25;23.14
79374;BME280;68844;53.128;17.958;2023-08-24T10:40:53;101227.81;;;36.92;22.52
79374;BME280;68844;53.128;17.958;2023-08-24T10:43:22;101219.92;;;37.45;21.65
79374;BME280;68844;53.128;17.958;2023-08-24T10:46:00;101220.13;;;37.23;21.57
79374;BME280;68844;53.128;17.958;2023-08-24T10:49:18;101221.67;;;37.42;22.94
79374;BME280;68844;53.128;17.958;2023-08-24T10:51:17;101216.63;;;37.58;21.75
79374;BME280;68844;53.128;17.958;2023-08-24T10:53:59;101209.60;;;37.68;22.40
79374;BME280;68844;53.128;17.958;2023-08-24T10:59:15;101210.61;;;38.10;21.58
79374;BME280;68844;53.128;17.958;2023-08-24T11:01:56;101210.85;;;37.56;21.33
79374;BME280;68844;53.128;17.958;2023-08-24T11:04:24;101209.83;;;37.18;21.64
79374;BME280;68844;53.128;17.958;2023-08-24T11:06:59;101204.09;;;37.27;22.07
79374;BME280;68844;53.128;17.958;2023-08-24T11:09:58;101201.59;;;36.69;22.09
79374;BME280;68844;53.128;17.958;2023-08-24T11:12:25;101196.55;;;36.91;22.66
79374;BME280;68844;53.128;17.958;2023-08-24T11:14:52;101195.18;;;36.99;22.12
79374;BME280;68844;53.128;17.958;2023-08-24T11:17:29;101190.00;;;36.66;21.70
79374;BME280;68844;53.128;17.958;2023-08-24T11:19:58;101193.58;;;36.64;22.13
79374;BME280;68844;53.128;17.958;2023-08-24T11:22:25;101193.20;;;36.02;21.78
79374;BME280;68844;53.128;17.958;2023-08-24T11:24:52;101203.02;;;35.95;22.59
79374;BME280;68844;53.128;17.958;2023-08-24T11:27:21;101196.08;;;35.78;22.91
79374;BME280;68844;53.128;17.958;2023-08-24T11:29:58;101188.30;;;35.94;23.05
79374;BME280;68844;53.128;17.958;2023-08-24T11:32:25;101180.34;;;36.16;22.35
79374;BME280;68844;53.128;17.958;2023-08-24T11:34:51;101180.42;;;35.86;22.83
79374;BME280;68844;53.128;17.958;2023-08-24T11:37:19;101178.99;;;35.80;22.94
79374;BME280;68844;53.128;17.958;2023-08-24T11:39:47;101176.08;;;35.90;22.89
79374;BME280;68844;53.128;17.958;2023-08-24T11:42:13;101177.98;;;35.52;23.11
79374;BME280;68844;53.128;17.958;2023-08-24T11:44:47;101171.95;;;35.32;23.46
79374;BME280;68844;53.128;17.958;2023-08-24T11:47:15;101171.30;;;35.07;23.23
79374;BME280;68844;53.128;17.958;2023-08-24T11:49:42;101164.89;;;34.78;23.92
79374;BME280;68844;53.128;17.958;2023-08-24T11:52:09;101162.73;;;34.72;23.98
79374;BME280;68844;53.128;17.958;2023-08-24T11:54:36;101160.54;;;34.53;23.81
79374;BME280;68844;53.128;17.958;2023-08-24T11:57:07;101161.33;;;34.16;23.84
79374;BME280;68844;53.128;17.958;2023-08-24T11:59:36;101156.25;;;33.91;24.42
79374;BME280;68844;53.128;17.958;2023-08-24T12:02:04;101150.33;;;33.64;24.54
79374;BME280;68844;53.128;17.958;2023-08-24T12:04:41;101149.19;;;33.60;24.54
79374;BME280;68844;53.128;17.958;2023-08-24T12:07:10;101150.25;;;33.23;24.61
79374;BME280;68844;53.128;17.958;2023-08-24T12:09:40;101147.34;;;33.14;24.85
79374;BME280;68844;53.128;17.958;2023-08-24T12:12:15;101145.83;;;32.79;24.70
79374;BME280;68844;53.128;17.958;2023-08-24T12:14:43;101146.52;;;32.46;26.04
79374;BME280;68844;53.128;17.958;2023-08-24T12:17:11;101148.48;;;32.71;26.60
79374;BME280;68844;53.128;17.958;2023-08-24T12:19:43;101143.58;;;33.10;26.84
79374;BME280;68844;53.128;17.958;2023-08-24T12:22:16;101134.77;;;33.43;26.49
79374;BME280;68844;53.128;17.958;2023-08-24T12:24:46;101131.71;;;33.47;25.84
79374;BME280;68844;53.128;17.958;2023-08-24T12:27:24;101135.06;;;33.47;25.78
79374;BME280;68844;53.128;17.958;2023-08-24T12:29:51;101132.85;;;33.41;25.42
79374;BME280;68844;53.128;17.958;2023-08-24T12:32:20;101127.48;;;33.20;25.47
79374;BME280;68844;53.128;17.958;2023-08-24T12:34:49;101130.48;;;33.10;25.49
79374;BME280;68844;53.128;17.958;2023-08-24T12:37:21;101128.99;;;33.04;26.42
79374;BME280;68844;53.128;17.958;2023-08-24T12:39:48;101127.39;;;33.22;26.14
79374;BME280;68844;53.128;17.958;2023-08-24T12:42:16;101122.84;;;33.10;27.07
79374;BME280;68844;53.128;17.958;2023-08-24T12:44:43;101123.60;;;32.85;26.38
79374;BME280;68844;53.128;17.958;2023-08-24T12:47:10;101118.52;;;32.75;26.83
79374;BME280;68844;53.128;17.958;2023-08-24T12:49:37;101114.48;;;32.50;27.36
79374;BME280;68844;53.128;17.958;2023-08-24T12:52:04;101112.42;;;32.40;27.44
79374;BME280;68844;53.128;17.958;2023-08-24T12:54:31;101113.80;;;31.95;27.91
79374;BME280;68844;53.128;17.958;2023-08-24T12:56:58;101111.70;;;31.64;28.30